sensor_id;sensor_type;location;lat;lon;timestamp;P1;durP1;ratioP1;P2;durP2;ratioP2
11090;SDS011;5599;52.210;21.046;2022-12-10T00:01:47;86.17;;;53.60;;
11090;SDS011;5599;52.210;21.046;2022-12-10T00:04:18;92.90;;;53.87;;
11090;SDS011;5599;52.210;21.046;2022-12-10T00:06:48;85.20;;;51.47;;
11090;SDS011;5599;52.210;21.046;2022-12-10T00:09:18;78.20;;;49.77;;
11090;SDS011;5599;52.210;21.046;2022-12-10T00:11:49;83.17;;;51.70;;
11090;SDS011;5599;52.210;21.046;2022-12-10T00:14:18;88.43;;;53.83;;
11090;SDS011;5599;52.210;21.046;2022-12-10T00:16:49;88.67;;;52.00;;
11090;SDS011;5599;52.210;21.046;2022-12-10T00:19:18;84.40;;;51.97;;
11090;SDS011;5599;52.210;21.046;2022-12-10T00:21:47;77.63;;;49.77;;
11090;SDS011;5599;52.210;21.046;2022-12-10T00:24:16;89.83;;;52.60;;
11090;SDS011;5599;52.210;21.046;2022-12-10T00:26:45;82.20;;;50.17;;
11090;SDS011;5599;52.210;21.046;2022-12-10T00:29:15;86.30;;;51.83;;
11090;SDS011;5599;52.210;21.046;2022-12-10T00:31:44;91.47;;;53.93;;
11090;SDS011;5599;52.210;21.046;2022-12-10T00:34:13;83.30;;;52.03;;
11090;SDS011;5599;52.210;21.046;2022-12-10T00:36:43;82.50;;;52.37;;
11090;SDS011;5599;52.210;21.046;2022-12-10T00:39:14;84.57;;;52.33;;
11090;SDS011;5599;52.210;21.046;2022-12-10T00:41:44;84.80;;;53.20;;
11090;SDS011;5599;52.210;21.046;2022-12-10T00:44:15;86.20;;;53.73;;
11090;SDS011;5599;52.210;21.046;2022-12-10T00:46:45;84.87;;;51.87;;
11090;SDS011;5599;52.210;21.046;2022-12-10T00:49:14;88.90;;;53.90;;
11090;SDS011;5599;52.210;21.046;2022-12-10T00:51:43;99.63;;;57.90;;
11090;SDS011;5599;52.210;21.046;2022-12-10T00:54:12;94.50;;;54.90;;
11090;SDS011;5599;52.210;21.046;2022-12-10T00:56:41;88.43;;;52.83;;
11090;SDS011;5599;52.210;21.046;2022-12-10T00:59:10;90.90;;;54.57;;
11090;SDS011;5599;52.210;21.046;2022-12-10T01:01:41;87.73;;;54.67;;
11090;SDS011;5599;52.210;21.046;2022-12-10T01:04:12;90.87;;;55.53;;
11090;SDS011;5599;52.210;21.046;2022-12-10T01:06:42;94.10;;;54.37;;
11090;SDS011;5599;52.210;21.046;2022-12-10T01:09:14;88.90;;;53.77;;
11090;SDS011;5599;52.210;21.046;2022-12-10T01:11:44;84.13;;;52.90;;
11090;SDS011;5599;52.210;21.046;2022-12-10T01:14:16;88.17;;;52.63;;
11090;SDS011;5599;52.210;21.046;2022-12-10T01:16:49;82.80;;;50.20;;
11090;SDS011;5599;52.210;21.046;2022-12-10T01:19:18;87.93;;;50.93;;
11090;SDS011;5599;52.210;21.046;2022-12-10T01:21:49;83.23;;;50.17;;
11090;SDS011;5599;52.210;21.046;2022-12-10T01:24:19;84.73;;;50.13;;
11090;SDS011;5599;52.210;21.046;2022-12-10T01:26:48;89.53;;;50.53;;
11090;SDS011;5599;52.210;21.046;2022-12-10T01:29:17;82.37;;;49.57;;
11090;SDS011;5599;52.210;21.046;2022-12-10T01:31:49;76.50;;;44.93;;
11090;SDS011;5599;52.210;21.046;2022-12-10T01:34:21;85.90;;;52.33;;
11090;SDS011;5599;52.210;21.046;2022-12-10T01:36:55;81.17;;;51.43;;
11090;SDS011;5599;52.210;21.046;2022-12-10T01:39:24;79.13;;;44.73;;
11090;SDS011;5599;52.210;21.046;2022-12-10T01:41:54;77.97;;;45.47;;
11090;SDS011;5599;52.210;21.046;2022-12-10T01:47:30;80.37;;;48.53;;
11090;SDS011;5599;52.210;21.046;2022-12-10T01:50:00;85.73;;;50.00;;
11090;SDS011;5599;52.210;21.046;2022-12-10T01:52:29;81.03;;;48.30;;
11090;SDS011;5599;52.210;21.046;2022-12-10T01:54:58;85.03;;;49.23;;
11090;SDS011;5599;52.210;21.046;2022-12-10T01:57:27;71.23;;;44.43;;
11090;SDS011;5599;52.210;21.046;2022-12-10T01:59:58;74.07;;;42.87;;
11090;SDS011;5599;52.210;21.046;2022-12-10T02:02:42;74.47;;;45.20;;
11090;SDS011;5599;52.210;21.046;2022-12-10T02:05:21;80.77;;;48.60;;
11090;SDS011;5599;52.210;21.046;2022-12-10T02:07:59;75.87;;;46.00;;
11090;SDS011;5599;52.210;21.046;2022-12-10T02:10:39;80.97;;;46.13;;
11090;SDS011;5599;52.210;21.046;2022-12-10T02:13:17;78.50;;;46.07;;
11090;SDS011;5599;52.210;21.046;2022-12-10T02:15:54;74.53;;;46.60;;
11090;SDS011;5599;52.210;21.046;2022-12-10T02:18:31;76.17;;;44.60;;
11090;SDS011;5599;52.210;21.046;2022-12-10T02:21:06;71.37;;;42.27;;
11090;SDS011;5599;52.210;21.046;2022-12-10T02:23:42;74.67;;;43.40;;
11090;SDS011;5599;52.210;21.046;2022-12-10T02:26:15;71.73;;;43.47;;
11090;SDS011;5599;52.210;21.046;2022-12-10T02:28:51;69.73;;;41.53;;
11090;SDS011;5599;52.210;21.046;2022-12-10T02:31:26;72.60;;;42.50;;
11090;SDS011;5599;52.210;21.046;2022-12-10T02:34:00;60.30;;;36.57;;
11090;SDS011;5599;52.210;21.046;2022-12-10T02:36:32;67.50;;;39.17;;
11090;SDS011;5599;52.210;21.046;2022-12-10T02:39:03;65.67;;;40.10;;
11090;SDS011;5599;52.210;21.046;2022-12-10T02:41:45;61.00;;;38.87;;
11090;SDS011;5599;52.210;21.046;2022-12-10T02:44:18;73.07;;;39.57;;
11090;SDS011;5599;52.210;21.046;2022-12-10T02:46:52;62.07;;;38.50;;
11090;SDS011;5599;52.210;21.046;2022-12-10T02:49:29;53.87;;;31.87;;
11090;SDS011;5599;52.210;21.046;2022-12-10T02:52:05;62.07;;;38.90;;
11090;SDS011;5599;52.210;21.046;2022-12-10T02:54:40;58.57;;;35.00;;
11090;SDS011;5599;52.210;21.046;2022-12-10T02:57:19;55.73;;;33.27;;
11090;SDS011;5599;52.210;21.046;2022-12-10T03:00:02;57.27;;;34.10;;
11090;SDS011;5599;52.210;21.046;2022-12-10T03:02:46;49.57;;;31.47;;
11090;SDS011;5599;52.210;21.046;2022-12-10T03:05:27;51.57;;;31.37;;
11090;SDS011;5599;52.210;21.046;2022-12-10T03:08:05;49.70;;;31.27;;
11090;SDS011;5599;52.210;21.046;2022-12-10T03:10:41;52.80;;;31.30;;
11090;SDS011;5599;52.210;21.046;2022-12-10T03:13:14;46.10;;;29.30;;
11090;SDS011;5599;52.210;21.046;2022-12-10T03:15:46;52.90;;;30.60;;
11090;SDS011;5599;52.210;21.046;2022-12-10T03:18:19;49.97;;;31.27;;
11090;SDS011;5599;52.210;21.046;2022-12-10T03:20:53;48.87;;;30.90;;
11090;SDS011;5599;52.210;21.046;2022-12-10T03:23:26;55.47;;;33.17;;
11090;SDS011;5599;52.210;21.046;2022-12-10T03:25:57;51.30;;;32.47;;
11090;SDS011;5599;52.210;21.046;2022-12-10T03:28:28;57.20;;;33.20;;
11090;SDS011;5599;52.210;21.046;2022-12-10T03:31:02;56.30;;;32.03;;
11090;SDS011;5599;52.210;21.046;2022-12-10T03:33:33;54.07;;;32.60;;
11090;SDS011;5599;52.210;21.046;2022-12-10T03:36:03;54.83;;;32.40;;
11090;SDS011;5599;52.210;21.046;2022-12-10T03:38:33;54.23;;;32.70;;
11090;SDS011;5599;52.210;21.046;2022-12-10T03:41:04;55.00;;;34.80;;
11090;SDS011;5599;52.210;21.046;2022-12-10T03:43:33;56.77;;;33.67;;
11090;SDS011;5599;52.210;21.046;2022-12-10T03:46:02;53.53;;;31.93;;
11090;SDS011;5599;52.210;21.046;2022-12-10T03:48:31;49.33;;;29.80;;
11090;SDS011;5599;52.210;21.046;2022-12-10T03:51:02;42.87;;;27.77;;
11090;SDS011;5599;52.210;21.046;2022-12-10T03:53:31;49.60;;;32.03;;
11090;SDS011;5599;52.210;21.046;2022-12-10T03:56:00;45.67;;;31.83;;
11090;SDS011;5599;52.210;21.046;2022-12-10T03:58:29;47.47;;;29.33;;
11090;SDS011;5599;52.210;21.046;2022-12-10T04:00:58;46.13;;;26.73;;
11090;SDS011;5599;52.210;21.046;2022-12-10T04:03:27;48.43;;;30.33;;
11090;SDS011;5599;52.210;21.046;2022-12-10T04:06:02;51.67;;;31.53;;
11090;SDS011;5599;52.210;21.046;2022-12-10T04:08:31;49.77;;;30.40;;
11090;SDS011;5599;52.210;21.046;2022-12-10T04:11:03;52.17;;;31.40;;
11090;SDS011;5599;52.210;21.046;2022-12-10T04:13:34;49.03;;;31.57;;
11090;SDS011;5599;52.210;21.046;2022-12-10T04:16:21;51.27;;;30.17;;
11090;SDS011;5599;52.210;21.046;2022-12-10T04:18:58;46.37;;;30.87;;
11090;SDS011;5599;52.210;21.046;2022-12-10T04:21:30;47.43;;;29.53;;
11090;SDS011;5599;52.210;21.046;2022-12-10T04:24:18;45.73;;;28.37;;
11090;SDS011;5599;52.210;21.046;2022-12-10T04:27:06;43.87;;;25.93;;
11090;SDS011;5599;52.210;21.046;2022-12-10T04:29:38;42.17;;;26.03;;
11090;SDS011;5599;52.210;21.046;2022-12-10T04:32:07;46.20;;;27.47;;
11090;SDS011;5599;52.210;21.046;2022-12-10T04:34:36;41.50;;;27.20;;
11090;SDS011;5599;52.210;21.046;2022-12-10T04:37:07;46.70;;;27.03;;
11090;SDS011;5599;52.210;21.046;2022-12-10T04:39:38;43.77;;;27.33;;
11090;SDS011;5599;52.210;21.046;2022-12-10T04:42:07;44.00;;;27.50;;
11090;SDS011;5599;52.210;21.046;2022-12-10T04:44:36;45.60;;;25.97;;
11090;SDS011;5599;52.210;21.046;2022-12-10T04:47:06;45.90;;;26.87;;
11090;SDS011;5599;52.210;21.046;2022-12-10T04:49:36;47.43;;;28.23;;
11090;SDS011;5599;52.210;21.046;2022-12-10T04:52:08;42.07;;;26.43;;
11090;SDS011;5599;52.210;21.046;2022-12-10T04:54:40;46.93;;;27.27;;
11090;SDS011;5599;52.210;21.046;2022-12-10T04:57:10;42.83;;;26.37;;
11090;SDS011;5599;52.210;21.046;2022-12-10T04:59:40;42.83;;;26.23;;
11090;SDS011;5599;52.210;21.046;2022-12-10T05:02:10;48.37;;;27.43;;
11090;SDS011;5599;52.210;21.046;2022-12-10T05:04:39;41.87;;;26.10;;
11090;SDS011;5599;52.210;21.046;2022-12-10T05:07:09;47.87;;;28.37;;
11090;SDS011;5599;52.210;21.046;2022-12-10T05:09:38;44.43;;;26.07;;
11090;SDS011;5599;52.210;21.046;2022-12-10T05:12:07;43.00;;;25.97;;
11090;SDS011;5599;52.210;21.046;2022-12-10T05:14:37;44.80;;;27.13;;
11090;SDS011;5599;52.210;21.046;2022-12-10T05:17:06;47.83;;;28.20;;
11090;SDS011;5599;52.210;21.046;2022-12-10T05:19:35;43.47;;;25.33;;
11090;SDS011;5599;52.210;21.046;2022-12-10T05:22:04;42.90;;;25.13;;
11090;SDS011;5599;52.210;21.046;2022-12-10T05:24:52;40.83;;;24.70;;
11090;SDS011;5599;52.210;21.046;2022-12-10T05:27:21;36.33;;;21.10;;
11090;SDS011;5599;52.210;21.046;2022-12-10T05:29:50;45.53;;;25.57;;
11090;SDS011;5599;52.210;21.046;2022-12-10T05:32:19;38.93;;;23.07;;
11090;SDS011;5599;52.210;21.046;2022-12-10T05:34:48;43.73;;;24.37;;
11090;SDS011;5599;52.210;21.046;2022-12-10T05:37:17;38.27;;;24.20;;
11090;SDS011;5599;52.210;21.046;2022-12-10T05:39:47;40.77;;;24.83;;
11090;SDS011;5599;52.210;21.046;2022-12-10T05:42:17;41.53;;;22.97;;
11090;SDS011;5599;52.210;21.046;2022-12-10T05:44:46;40.47;;;24.20;;
11090;SDS011;5599;52.210;21.046;2022-12-10T05:47:15;46.77;;;24.73;;
11090;SDS011;5599;52.210;21.046;2022-12-10T05:49:44;37.33;;;22.60;;
11090;SDS011;5599;52.210;21.046;2022-12-10T05:52:18;43.60;;;25.70;;
11090;SDS011;5599;52.210;21.046;2022-12-10T05:54:47;41.67;;;23.23;;
11090;SDS011;5599;52.210;21.046;2022-12-10T05:57:17;40.90;;;23.10;;
11090;SDS011;5599;52.210;21.046;2022-12-10T05:59:46;42.30;;;25.23;;
11090;SDS011;5599;52.210;21.046;2022-12-10T06:02:16;38.47;;;22.80;;
11090;SDS011;5599;52.210;21.046;2022-12-10T06:04:45;41.87;;;23.70;;
11090;SDS011;5599;52.210;21.046;2022-12-10T06:07:14;39.63;;;24.00;;
11090;SDS011;5599;52.210;21.046;2022-12-10T06:09:43;37.03;;;23.40;;
11090;SDS011;5599;52.210;21.046;2022-12-10T06:12:12;34.90;;;20.47;;
11090;SDS011;5599;52.210;21.046;2022-12-10T06:14:42;36.97;;;22.60;;
11090;SDS011;5599;52.210;21.046;2022-12-10T06:17:11;37.03;;;22.77;;
11090;SDS011;5599;52.210;21.046;2022-12-10T06:19:40;36.37;;;22.53;;
11090;SDS011;5599;52.210;21.046;2022-12-10T06:22:10;37.43;;;21.63;;
11090;SDS011;5599;52.210;21.046;2022-12-10T06:24:39;32.00;;;19.20;;
11090;SDS011;5599;52.210;21.046;2022-12-10T06:27:08;32.13;;;20.00;;
11090;SDS011;5599;52.210;21.046;2022-12-10T06:29:37;33.83;;;21.53;;
11090;SDS011;5599;52.210;21.046;2022-12-10T06:32:08;37.37;;;22.53;;
11090;SDS011;5599;52.210;21.046;2022-12-10T06:34:37;40.13;;;23.63;;
11090;SDS011;5599;52.210;21.046;2022-12-10T06:37:08;38.83;;;22.87;;
11090;SDS011;5599;52.210;21.046;2022-12-10T06:39:37;37.23;;;23.17;;
11090;SDS011;5599;52.210;21.046;2022-12-10T06:42:07;39.43;;;23.63;;
11090;SDS011;5599;52.210;21.046;2022-12-10T06:44:36;36.60;;;21.83;;
11090;SDS011;5599;52.210;21.046;2022-12-10T06:47:05;41.03;;;23.53;;
11090;SDS011;5599;52.210;21.046;2022-12-10T06:49:35;37.23;;;22.47;;
11090;SDS011;5599;52.210;21.046;2022-12-10T06:52:04;38.27;;;22.57;;
11090;SDS011;5599;52.210;21.046;2022-12-10T06:54:34;41.70;;;22.93;;
11090;SDS011;5599;52.210;21.046;2022-12-10T06:57:03;40.83;;;24.80;;
11090;SDS011;5599;52.210;21.046;2022-12-10T06:59:32;39.53;;;22.97;;
11090;SDS011;5599;52.210;21.046;2022-12-10T07:02:01;47.37;;;24.57;;
11090;SDS011;5599;52.210;21.046;2022-12-10T07:04:30;43.90;;;24.57;;
11090;SDS011;5599;52.210;21.046;2022-12-10T07:07:00;43.50;;;24.20;;
11090;SDS011;5599;52.210;21.046;2022-12-10T07:09:35;40.93;;;23.87;;
11090;SDS011;5599;52.210;21.046;2022-12-10T07:12:04;43.10;;;23.87;;
11090;SDS011;5599;52.210;21.046;2022-12-10T07:14:34;45.13;;;24.50;;
11090;SDS011;5599;52.210;21.046;2022-12-10T07:17:03;43.73;;;23.40;;
11090;SDS011;5599;52.210;21.046;2022-12-10T07:19:32;42.60;;;23.40;;
11090;SDS011;5599;52.210;21.046;2022-12-10T07:22:03;50.53;;;26.33;;
11090;SDS011;5599;52.210;21.046;2022-12-10T07:24:32;50.43;;;27.83;;
11090;SDS011;5599;52.210;21.046;2022-12-10T07:27:04;44.73;;;25.30;;
11090;SDS011;5599;52.210;21.046;2022-12-10T07:29:33;53.10;;;25.17;;
11090;SDS011;5599;52.210;21.046;2022-12-10T07:32:03;48.20;;;24.90;;
11090;SDS011;5599;52.210;21.046;2022-12-10T07:34:32;45.63;;;23.67;;
11090;SDS011;5599;52.210;21.046;2022-12-10T07:37:03;44.30;;;23.97;;
11090;SDS011;5599;52.210;21.046;2022-12-10T07:39:32;47.23;;;23.60;;
11090;SDS011;5599;52.210;21.046;2022-12-10T07:42:01;43.43;;;24.13;;
11090;SDS011;5599;52.210;21.046;2022-12-10T07:44:34;52.03;;;26.50;;
11090;SDS011;5599;52.210;21.046;2022-12-10T07:47:03;49.73;;;25.83;;
11090;SDS011;5599;52.210;21.046;2022-12-10T07:49:32;52.53;;;26.67;;
11090;SDS011;5599;52.210;21.046;2022-12-10T07:52:03;49.47;;;26.37;;
11090;SDS011;5599;52.210;21.046;2022-12-10T07:54:32;44.40;;;24.50;;
11090;SDS011;5599;52.210;21.046;2022-12-10T07:57:01;45.37;;;23.93;;
11090;SDS011;5599;52.210;21.046;2022-12-10T07:59:30;46.03;;;23.93;;
11090;SDS011;5599;52.210;21.046;2022-12-10T08:01:59;46.67;;;23.23;;
11090;SDS011;5599;52.210;21.046;2022-12-10T08:04:34;45.27;;;23.10;;
11090;SDS011;5599;52.210;21.046;2022-12-10T08:07:06;39.83;;;22.50;;
11090;SDS011;5599;52.210;21.046;2022-12-10T08:09:35;43.60;;;22.93;;
11090;SDS011;5599;52.210;21.046;2022-12-10T08:12:04;43.70;;;23.53;;
11090;SDS011;5599;52.210;21.046;2022-12-10T08:14:33;41.17;;;21.40;;
11090;SDS011;5599;52.210;21.046;2022-12-10T08:17:02;39.13;;;22.37;;
11090;SDS011;5599;52.210;21.046;2022-12-10T08:19:31;45.00;;;24.43;;
11090;SDS011;5599;52.210;21.046;2022-12-10T08:22:00;44.90;;;24.73;;
11090;SDS011;5599;52.210;21.046;2022-12-10T08:24:31;45.30;;;22.83;;
11090;SDS011;5599;52.210;21.046;2022-12-10T08:27:01;48.10;;;23.50;;
11090;SDS011;5599;52.210;21.046;2022-12-10T08:29:30;42.83;;;24.73;;
11090;SDS011;5599;52.210;21.046;2022-12-10T08:31:59;44.87;;;22.53;;
11090;SDS011;5599;52.210;21.046;2022-12-10T08:34:28;44.13;;;23.00;;
11090;SDS011;5599;52.210;21.046;2022-12-10T08:36:57;46.83;;;24.67;;
11090;SDS011;5599;52.210;21.046;2022-12-10T08:39:26;43.33;;;24.27;;
11090;SDS011;5599;52.210;21.046;2022-12-10T08:41:57;44.17;;;24.10;;
11090;SDS011;5599;52.210;21.046;2022-12-10T08:44:26;42.10;;;22.53;;
11090;SDS011;5599;52.210;21.046;2022-12-10T08:46:55;42.20;;;22.10;;
11090;SDS011;5599;52.210;21.046;2022-12-10T08:49:24;42.33;;;22.03;;
11090;SDS011;5599;52.210;21.046;2022-12-10T08:51:53;44.43;;;24.03;;
11090;SDS011;5599;52.210;21.046;2022-12-10T08:54:22;47.23;;;24.10;;
11090;SDS011;5599;52.210;21.046;2022-12-10T08:56:52;43.47;;;25.07;;
11090;SDS011;5599;52.210;21.046;2022-12-10T08:59:22;46.27;;;23.87;;
11090;SDS011;5599;52.210;21.046;2022-12-10T09:01:52;44.73;;;24.43;;
11090;SDS011;5599;52.210;21.046;2022-12-10T09:04:22;47.90;;;25.13;;
11090;SDS011;5599;52.210;21.046;2022-12-10T09:06:51;42.50;;;23.10;;
11090;SDS011;5599;52.210;21.046;2022-12-10T09:09:21;43.90;;;22.63;;
11090;SDS011;5599;52.210;21.046;2022-12-10T09:11:50;44.30;;;23.73;;
11090;SDS011;5599;52.210;21.046;2022-12-10T09:14:19;49.10;;;23.93;;
11090;SDS011;5599;52.210;21.046;2022-12-10T09:16:49;44.37;;;22.47;;
11090;SDS011;5599;52.210;21.046;2022-12-10T09:19:18;42.63;;;23.37;;
11090;SDS011;5599;52.210;21.046;2022-12-10T09:21:47;46.77;;;22.27;;
11090;SDS011;5599;52.210;21.046;2022-12-10T09:24:16;42.30;;;22.53;;
11090;SDS011;5599;52.210;21.046;2022-12-10T09:26:46;43.57;;;23.10;;
11090;SDS011;5599;52.210;21.046;2022-12-10T09:29:15;44.13;;;22.97;;
11090;SDS011;5599;52.210;21.046;2022-12-10T09:31:44;46.00;;;23.20;;
11090;SDS011;5599;52.210;21.046;2022-12-10T09:34:14;42.07;;;23.27;;
11090;SDS011;5599;52.210;21.046;2022-12-10T09:36:43;38.23;;;21.57;;
11090;SDS011;5599;52.210;21.046;2022-12-10T09:39:13;39.80;;;20.27;;
11090;SDS011;5599;52.210;21.046;2022-12-10T09:41:47;42.20;;;21.53;;
11090;SDS011;5599;52.210;21.046;2022-12-10T09:44:28;40.73;;;22.23;;
11090;SDS011;5599;52.210;21.046;2022-12-10T09:47:07;40.47;;;23.40;;
11090;SDS011;5599;52.210;21.046;2022-12-10T09:49:42;43.33;;;22.00;;
11090;SDS011;5599;52.210;21.046;2022-12-10T09:52:22;41.63;;;22.87;;
11090;SDS011;5599;52.210;21.046;2022-12-10T09:54:53;42.50;;;22.57;;
11090;SDS011;5599;52.210;21.046;2022-12-10T09:57:26;44.47;;;23.83;;
11090;SDS011;5599;52.210;21.046;2022-12-10T09:59:59;42.70;;;22.33;;
11090;SDS011;5599;52.210;21.046;2022-12-10T10:02:37;38.50;;;21.57;;
11090;SDS011;5599;52.210;21.046;2022-12-10T10:05:10;43.53;;;23.47;;
11090;SDS011;5599;52.210;21.046;2022-12-10T10:07:45;40.90;;;21.87;;
11090;SDS011;5599;52.210;21.046;2022-12-10T10:10:19;39.67;;;21.30;;
11090;SDS011;5599;52.210;21.046;2022-12-10T10:12:52;40.20;;;22.23;;
11090;SDS011;5599;52.210;21.046;2022-12-10T10:15:24;41.30;;;22.07;;
11090;SDS011;5599;52.210;21.046;2022-12-10T10:17:58;41.27;;;21.90;;
11090;SDS011;5599;52.210;21.046;2022-12-10T10:20:34;38.43;;;20.70;;
11090;SDS011;5599;52.210;21.046;2022-12-10T10:23:04;34.80;;;19.47;;
11090;SDS011;5599;52.210;21.046;2022-12-10T10:25:33;38.47;;;20.70;;
11090;SDS011;5599;52.210;21.046;2022-12-10T10:28:03;41.27;;;22.50;;
11090;SDS011;5599;52.210;21.046;2022-12-10T10:30:32;36.90;;;21.20;;
11090;SDS011;5599;52.210;21.046;2022-12-10T10:33:02;40.00;;;21.60;;
11090;SDS011;5599;52.210;21.046;2022-12-10T10:35:43;37.67;;;19.07;;
11090;SDS011;5599;52.210;21.046;2022-12-10T10:38:16;32.13;;;18.80;;
11090;SDS011;5599;52.210;21.046;2022-12-10T10:40:50;35.63;;;20.40;;
11090;SDS011;5599;52.210;21.046;2022-12-10T10:43:22;36.13;;;21.23;;
11090;SDS011;5599;52.210;21.046;2022-12-10T10:45:53;34.67;;;20.03;;
11090;SDS011;5599;52.210;21.046;2022-12-10T10:48:31;34.93;;;19.50;;
11090;SDS011;5599;52.210;21.046;2022-12-10T10:51:06;36.93;;;20.43;;
11090;SDS011;5599;52.210;21.046;2022-12-10T10:53:43;40.43;;;19.40;;
11090;SDS011;5599;52.210;21.046;2022-12-10T10:56:15;33.23;;;19.27;;
11090;SDS011;5599;52.210;21.046;2022-12-10T10:58:50;38.93;;;21.57;;
11090;SDS011;5599;52.210;21.046;2022-12-10T11:01:23;38.87;;;22.77;;
11090;SDS011;5599;52.210;21.046;2022-12-10T11:03:54;37.30;;;22.80;;
11090;SDS011;5599;52.210;21.046;2022-12-10T11:06:28;39.07;;;21.07;;
11090;SDS011;5599;52.210;21.046;2022-12-10T11:08:57;35.77;;;20.53;;
11090;SDS011;5599;52.210;21.046;2022-12-10T11:11:31;44.67;;;23.67;;
11090;SDS011;5599;52.210;21.046;2022-12-10T11:14:15;38.67;;;21.27;;
11090;SDS011;5599;52.210;21.046;2022-12-10T11:16:57;36.87;;;21.50;;
11090;SDS011;5599;52.210;21.046;2022-12-10T11:19:31;36.83;;;20.47;;
11090;SDS011;5599;52.210;21.046;2022-12-10T11:24:48;38.83;;;20.53;;
11090;SDS011;5599;52.210;21.046;2022-12-10T11:27:21;38.33;;;21.60;;
11090;SDS011;5599;52.210;21.046;2022-12-10T11:30:02;38.83;;;21.40;;
11090;SDS011;5599;52.210;21.046;2022-12-10T11:32:44;42.20;;;23.07;;
11090;SDS011;5599;52.210;21.046;2022-12-10T11:35:29;38.70;;;21.40;;
11090;SDS011;5599;52.210;21.046;2022-12-10T11:38:14;40.50;;;23.10;;
11090;SDS011;5599;52.210;21.046;2022-12-10T11:40:49;43.07;;;22.33;;
11090;SDS011;5599;52.210;21.046;2022-12-10T11:43:37;38.33;;;20.47;;
11090;SDS011;5599;52.210;21.046;2022-12-10T11:46:19;42.50;;;22.33;;
11090;SDS011;5599;52.210;21.046;2022-12-10T11:49:05;35.53;;;19.10;;
11090;SDS011;5599;52.210;21.046;2022-12-10T11:51:44;42.27;;;22.40;;
11090;SDS011;5599;52.210;21.046;2022-12-10T11:54:28;47.57;;;23.13;;
11090;SDS011;5599;52.210;21.046;2022-12-10T11:57:11;47.50;;;23.87;;
11090;SDS011;5599;52.210;21.046;2022-12-10T11:59:48;43.23;;;22.20;;
11090;SDS011;5599;52.210;21.046;2022-12-10T12:02:43;47.50;;;23.77;;
11090;SDS011;5599;52.210;21.046;2022-12-10T12:05:41;43.67;;;21.07;;
11090;SDS011;5599;52.210;21.046;2022-12-10T12:08:33;44.97;;;20.67;;
11090;SDS011;5599;52.210;21.046;2022-12-10T12:11:22;41.13;;;21.90;;
11090;SDS011;5599;52.210;21.046;2022-12-10T12:14:00;44.80;;;22.23;;
11090;SDS011;5599;52.210;21.046;2022-12-10T12:16:37;43.77;;;22.67;;
11090;SDS011;5599;52.210;21.046;2022-12-10T12:19:13;43.13;;;21.33;;
11090;SDS011;5599;52.210;21.046;2022-12-10T12:21:46;45.60;;;21.70;;
11090;SDS011;5599;52.210;21.046;2022-12-10T12:24:20;41.67;;;20.90;;
11090;SDS011;5599;52.210;21.046;2022-12-10T12:26:56;44.90;;;21.67;;
11090;SDS011;5599;52.210;21.046;2022-12-10T12:29:29;47.73;;;22.20;;
11090;SDS011;5599;52.210;21.046;2022-12-10T12:32:04;43.37;;;21.50;;
11090;SDS011;5599;52.210;21.046;2022-12-10T12:34:43;39.50;;;19.93;;
11090;SDS011;5599;52.210;21.046;2022-12-10T12:37:26;38.87;;;19.83;;
11090;SDS011;5599;52.210;21.046;2022-12-10T12:40:02;40.37;;;21.93;;
11090;SDS011;5599;52.210;21.046;2022-12-10T12:42:41;39.77;;;20.70;;
11090;SDS011;5599;52.210;21.046;2022-12-10T12:45:15;43.90;;;21.97;;
11090;SDS011;5599;52.210;21.046;2022-12-10T12:47:48;39.00;;;21.60;;
11090;SDS011;5599;52.210;21.046;2022-12-10T12:50:29;44.80;;;23.40;;
11090;SDS011;5599;52.210;21.046;2022-12-10T12:53:06;41.43;;;22.07;;
11090;SDS011;5599;52.210;21.046;2022-12-10T12:55:39;41.37;;;22.80;;
11090;SDS011;5599;52.210;21.046;2022-12-10T12:58:19;44.57;;;22.70;;
11090;SDS011;5599;52.210;21.046;2022-12-10T13:00:57;43.17;;;23.47;;
11090;SDS011;5599;52.210;21.046;2022-12-10T13:03:35;43.33;;;23.03;;
11090;SDS011;5599;52.210;21.046;2022-12-10T13:06:14;46.27;;;24.20;;
11090;SDS011;5599;52.210;21.046;2022-12-10T13:08:46;41.93;;;23.07;;
11090;SDS011;5599;52.210;21.046;2022-12-10T13:11:18;42.00;;;23.83;;
11090;SDS011;5599;52.210;21.046;2022-12-10T13:14:13;40.43;;;21.70;;
11090;SDS011;5599;52.210;21.046;2022-12-10T13:17:01;42.77;;;23.07;;
11090;SDS011;5599;52.210;21.046;2022-12-10T13:19:46;41.57;;;22.03;;
11090;SDS011;5599;52.210;21.046;2022-12-10T13:25:10;42.10;;;23.20;;
11090;SDS011;5599;52.210;21.046;2022-12-10T13:27:54;39.43;;;22.33;;
11090;SDS011;5599;52.210;21.046;2022-12-10T13:30:33;41.17;;;24.43;;
11090;SDS011;5599;52.210;21.046;2022-12-10T13:33:14;40.17;;;22.07;;
11090;SDS011;5599;52.210;21.046;2022-12-10T13:35:55;39.70;;;22.27;;
11090;SDS011;5599;52.210;21.046;2022-12-10T13:38:38;42.10;;;23.00;;
11090;SDS011;5599;52.210;21.046;2022-12-10T13:41:08;40.47;;;21.73;;
11090;SDS011;5599;52.210;21.046;2022-12-10T13:43:57;39.57;;;23.40;;
11090;SDS011;5599;52.210;21.046;2022-12-10T13:46:54;39.20;;;21.93;;
11090;SDS011;5599;52.210;21.046;2022-12-10T13:49:31;41.53;;;23.50;;
11090;SDS011;5599;52.210;21.046;2022-12-10T13:52:12;40.50;;;23.13;;
11090;SDS011;5599;52.210;21.046;2022-12-10T13:54:55;44.83;;;24.67;;
11090;SDS011;5599;52.210;21.046;2022-12-10T13:57:50;41.80;;;22.30;;
11090;SDS011;5599;52.210;21.046;2022-12-10T14:00:38;37.50;;;19.97;;
11090;SDS011;5599;52.210;21.046;2022-12-10T14:03:23;40.70;;;21.23;;
11090;SDS011;5599;52.210;21.046;2022-12-10T14:06:16;39.73;;;24.43;;
11090;SDS011;5599;52.210;21.046;2022-12-10T14:08:57;39.07;;;21.77;;
11090;SDS011;5599;52.210;21.046;2022-12-10T14:11:30;42.43;;;24.47;;
11090;SDS011;5599;52.210;21.046;2022-12-10T14:14:04;41.73;;;23.87;;
11090;SDS011;5599;52.210;21.046;2022-12-10T14:16:37;42.37;;;23.87;;
11090;SDS011;5599;52.210;21.046;2022-12-10T14:19:11;41.57;;;23.53;;
11090;SDS011;5599;52.210;21.046;2022-12-10T14:21:43;41.10;;;23.33;;
11090;SDS011;5599;52.210;21.046;2022-12-10T14:24:27;39.77;;;24.13;;
11090;SDS011;5599;52.210;21.046;2022-12-10T14:26:59;33.13;;;21.73;;
11090;SDS011;5599;52.210;21.046;2022-12-10T14:29:30;39.00;;;23.60;;
11090;SDS011;5599;52.210;21.046;2022-12-10T14:31:59;39.87;;;24.20;;
11090;SDS011;5599;52.210;21.046;2022-12-10T14:34:31;34.43;;;23.30;;
11090;SDS011;5599;52.210;21.046;2022-12-10T14:37:01;38.97;;;23.00;;
11090;SDS011;5599;52.210;21.046;2022-12-10T14:39:32;39.97;;;22.37;;
11090;SDS011;5599;52.210;21.046;2022-12-10T14:42:03;41.40;;;25.63;;
11090;SDS011;5599;52.210;21.046;2022-12-10T14:44:34;36.60;;;23.80;;
11090;SDS011;5599;52.210;21.046;2022-12-10T14:47:12;37.00;;;23.77;;
11090;SDS011;5599;52.210;21.046;2022-12-10T14:49:45;34.60;;;22.20;;
11090;SDS011;5599;52.210;21.046;2022-12-10T14:52:15;35.63;;;24.07;;
11090;SDS011;5599;52.210;21.046;2022-12-10T14:54:46;35.97;;;23.30;;
11090;SDS011;5599;52.210;21.046;2022-12-10T14:57:17;37.80;;;23.33;;
11090;SDS011;5599;52.210;21.046;2022-12-10T14:59:52;34.93;;;23.57;;
11090;SDS011;5599;52.210;21.046;2022-12-10T15:02:29;39.83;;;24.80;;
11090;SDS011;5599;52.210;21.046;2022-12-10T15:05:02;35.60;;;23.90;;